Terminal Aerodrome Forecast
Issued by NWS Cleveland, OH

Home | Current Version | Previous Version | Text Only | Print | Product List | Glossary On
Versions: 1 2 3 4 5 6 7 8 9 10 11 12 13 14 15 16 17 18 19 20 21 22 23 24 25 26 27 28
000
FTUS41 KCLE 160500
TAFCLE
TAF
KCLE 160520Z 1606/1712 34006KT P6SM SCT006 OVC015
      TEMPO 1606/1609 5SM BR OVC006
     FM160900 34003KT 5SM BR SCT006 OVC012
      TEMPO 1609/1613 3SM BR OVC006
     FM161400 36006KT P6SM BKN012 OVC025
     FM161600 36006KT P6SM SCT012 BKN025
     FM161800 35008KT P6SM SCT035
     FM170100 31004KT P6SM SKC=

USA.gov is the U.S. government's official web portal to all federal, state and local government web resources and services.